外地巴士討論 (B5) - 第3頁 - hkitalk.net 香港交通資訊網 - Powered by Discuz!

hkitalk.net 香港交通資訊網

 找回密碼
 會員申請加入
Custom Search

Login

搜索

 

Advertisement

 
(B0)香港巴士車務及車廂設備 (B1)香港巴士廣告消息/廣告車行踪 (B2)香港巴士討論 [熱門] [精華] (B3)巴士攝影作品貼圖區 [熱門] [精華] (B3i)即拍即貼 -手機相&翻拍Mon相 (B4)兩岸三地巴士討論 [精華] (B5)外地巴士討論 [精華]

Advertisement


(B6)旅遊巴士及過境巴士 [精華] (B7)巴士特別所見 (B11)巴士精華區 (B22)巴士迷吹水區   (V)私家車,商用車,政府及特種車輛 [精華]
(A6)相片及短片分享/攝影技術 (A10)香港地方討論 [精華] (A11)消費著數及飲食資訊 (A16)建築物機電裝置及設備 (A19)問路專區 (N)其他討論題目  
(F1)交通路線建議 (C2)航空 [精華] (C3)海上交通及船隻 [精華] (D1)公共交通有關商品 [精華]   (Y)hkitalk.net會員福利部 (Z)站務資源中心
(R1)香港鐵路 [精華] (R2)香港電車 [精華] (R3)港外鐵路 [精華]   (O1)omsi討論區 (O2)omsi下載區 (O3)omsi教學及求助區
(M1)小型巴士綜合討論 (M2)小型巴士多媒體分享區 (M3)香港小型巴士字軌表     最新板務資訊  
 

Advertisement

 

收藏本版 (4) |訂閱

外地巴士討論 (B5) 今日: 2 |主題: 8859|排名: 18 

版主: admin305, admin77
作者 回復/查看 最後發表
[Malaysia] 往返檳城及吉隆坡的長途巴士 attach_img hkitalk.media 2020-3-7 22:56 01399 hkitalk.media 2020-3-7 22:56
[Malaysia] 馬來西亞Daewoo旅遊巴士 attach_img hkitalk.media 2020-3-7 22:46 01322 hkitalk.media 2020-3-7 22:46
[UK] Oxford Tube 換新車 attach_img ox5 2020-3-6 12:43 21753 okt05032 2020-3-7 20:53
[Singapore] 新加坡最後的Benz掛接 attach_img hkitalk.media 2020-3-6 23:59 11481 VA73@2A 2020-3-7 11:47
[Singapore] SMRT Volvo B5LH attach_img hkitalk.media 2020-3-6 23:57 01346 hkitalk.media 2020-3-6 23:57
[Singapore] SBS9889U即日, 連內籠相 attach_img hkitalk.media 2020-3-6 23:55 01540 hkitalk.media 2020-3-6 23:55
[Singapore] Sentosa 橙色小巴 attach_img hkitalk.media 2020-3-6 23:36 01266 hkitalk.media 2020-3-6 23:36
[UK] 同一地方 不同色的Dart attach_img LB9087 2020-3-6 22:14 01082 LB9087 2020-3-6 22:14
[UK] 又紅又白的Trident attach_img LB9087 2020-3-6 22:13 01051 LB9087 2020-3-6 22:13
[UK] 格拉斯哥單層雞乸 attach_img LB9087 2020-3-5 21:52 01206 LB9087 2020-3-5 21:52
[Singapore] 即日新加坡Super Olympian attach_img hkitalk.media 2020-3-4 23:14 01370 hkitalk.media 2020-3-4 23:14
[Singapore] 新加坡BYD attach_img hkitalk.media 2020-3-4 23:13 01397 hkitalk.media 2020-3-4 23:13
[Singapore] 新加坡Volvo B8L attach_img hkitalk.media 2020-3-4 23:09 01457 hkitalk.media 2020-3-4 23:09
[UK] 草皮底色的兩軸B9TL attach_img ATE71 2020-3-4 21:42 01316 ATE71 2020-3-4 21:42
[UK] 已結業的Wessex Bus attach_img fp8329 2020-3-4 12:03 01448 fp8329 2020-3-4 12:03
[UK] 半廣加上層車頭廣告的富豪 attach_img LB9087 2020-3-3 21:39 01253 LB9087 2020-3-3 21:39
[Malaysia] 馬來西亞殘舊Dart仔 attach_img LB9087 2020-3-3 21:36 01409 LB9087 2020-3-3 21:36
[Singapore] 銀色雙層A95 attach_img LB9087 2020-3-3 21:33 01366 LB9087 2020-3-3 21:33
[Singapore] Singapore Bigbus attach_img hkitalk.media 2020-3-3 16:08 01220 hkitalk.media 2020-3-3 16:08
[Singapore] 聖淘沙中通 attach_img hkitalk.media 2020-3-3 16:07 01215 hkitalk.media 2020-3-3 16:07
[UK] Van Hool New A330 氫燃料電池巴士 attach_img fp8329 2020-3-2 12:30 11469 KV8948 2020-3-3 00:30
[UK] 使用導向路軌的Volvo B5LH attach_img fp8329 2020-3-2 15:20 21604 KV8948 2020-3-3 00:27
[UK] 將於4月尾結業的Manchester Community Transport (MCT) attach_img fp8329 2020-3-2 14:15 11365 KV8948 2020-3-3 00:25
[Singapore] 聖淘沙電動掛接 attach_img hkitalk.media 2020-3-2 16:23 01309 hkitalk.media 2020-3-2 16:23
[Singapore] 聖淘沙 Volvo B12BLEA attach_img hkitalk.media 2020-3-2 16:14 01241 hkitalk.media 2020-3-2 16:14
[UK] First - Mercedes-Benz Vario 814D 校巴 attach_img fp8329 2020-3-2 12:22 01087 fp8329 2020-3-2 12:22
[UK] The bluebird - Volvo B7R attach_img fp8329 2020-3-2 11:58 01050 fp8329 2020-3-2 11:58
[UK] Fiat Ducato / Bluebird Orion attach_img fp8329 2020-3-2 11:29 01021 fp8329 2020-3-2 11:29
[UK] 古董Leyland National載巴迷去巴士大集會 attach_img fp8329 2020-3-2 11:17 01149 fp8329 2020-3-2 11:17
[UK] 英國Neoplan旅遊巴 attach_img LB9087 2020-3-1 22:36 01177 LB9087 2020-3-1 22:36
[UK] 倫敦DAF DLP252開蓬觀光巴 attach_img LB9087 2020-3-1 22:29 01067 LB9087 2020-3-1 22:29
[UK] 藍色Optare Versa attach_img LB9087 2020-3-1 22:25 0943 LB9087 2020-3-1 22:25
[UK] 英倫巴士(50) Aberdeen attach_img fp8329 2020-3-1 22:19 01268 fp8329 2020-3-1 22:19
[UK] 英倫巴士(49) Dundee attach_img fp8329 2020-3-1 22:02 01241 fp8329 2020-3-1 22:02
[Malaysia] 馬來西亞Butterworth旅遊巴 attach_img hkitalk.media 2020-3-1 13:33 01181 hkitalk.media 2020-3-1 13:33
[UK] 巴士公司主動減價 UF6850 2020-3-1 00:05 11378 tofu 2020-3-1 11:28
[Singapore] 新加坡SBS富豪 attach_img agree LB9087 2020-2-29 23:30 01108 LB9087 2020-2-29 23:30
[Singapore] 銀色半廣MMC attach_img LB9087 2020-2-29 23:28 01042 LB9087 2020-2-29 23:28
[UK] 捷達色SOLO attach_img LB9087 2020-2-29 23:27 0983 LB9087 2020-2-29 23:27
[Canada] GOTransit貌似訂咗批純電Enviro500 isay 2020-2-29 13:25 11984 iczer3 2020-2-29 22:36
[Malaysia] Rapid KL 試驗 HINO 可容納輪椅的高地台小巴 S3BL343@66 2020-2-27 17:13 31746 jackycsm 2020-2-29 21:31
[UK] 不同色彩的Optare Solo出席Showbus attach_img ATE71 2020-2-28 22:08 01151 ATE71 2020-2-28 22:08
[UK] 出席Showbus的老虎雞 attach_img ATE71 2020-2-28 22:03 01050 ATE71 2020-2-28 22:03
[UK] 特別的銀色倫敦新Routemaster attach_img ATE71 2020-2-28 21:59 01064 ATE71 2020-2-28 21:59
[New Zealand] Ex-CMB NWFB ML63 attach_img digest agree KV8948 2020-2-26 11:54 43274 KV8948 2020-2-27 19:15
[UK] 以全黑色作路線宣傳的蛋蛋 attach_img LB9087 2020-2-25 22:10 01418 LB9087 2020-2-25 22:10
[UK] 愛丁堡玻璃梯Volvo B5LH attach_img LB9087 2020-2-25 22:08 01321 LB9087 2020-2-25 22:08
[Singapore] 近日退下來 Volgren車身Super Olympian attach_img fp8329 2020-2-24 23:31 01539 fp8329 2020-2-24 23:31
[UK] Frist集團的Optare Solo attach_img LB9087 2020-2-24 19:25 01021 LB9087 2020-2-24 19:25
[UK] Wright車身的Volvo B10BLE attach_img LB9087 2020-2-24 19:23 01047 LB9087 2020-2-24 19:23
[UK] 綠色Volvo B7TL attach_img LB9087 2020-2-24 19:19 01049 LB9087 2020-2-24 19:19
[Others] 馬來西亞新山殘舊DM Dart仔 attach_img LB9087 2020-1-27 22:28 42448 ac 2020-2-23 22:05
[UK] 金裝 ADL Enviro 350H Electric Hybrid attach_img fp8329 2020-2-22 21:25 11474 NicholasPlaxton 2020-2-23 12:58
[UK] 即將變天的CityZap attach_img fp8329 2020-2-22 21:02 41387 sancouve 2020-2-22 23:03
[UK] 昔日湖區555號線 Scania N230UD / E400車身 attach_img fp8329 2020-2-22 22:17 01196 fp8329 2020-2-22 22:17
[UK] EYMS in Scarborough attach_img fp8329 2020-2-22 21:48 0898 fp8329 2020-2-22 21:48
[UK] 全白色 MCV Evolution車身 Volvo B8RLE attach_img fp8329 2020-2-22 21:30 01277 fp8329 2020-2-22 21:30
[UK] 捷達單門E400MMC attach_img LB9087 2020-2-22 20:55 01001 LB9087 2020-2-22 20:55
[UK] 紅色單門Volvo B5LH attach_img LB9087 2020-2-22 20:53 0963 LB9087 2020-2-22 20:53
[UK] 當E200遇上E300車身的MAN A69 attach_img LB9087 2020-2-22 20:51 01091 LB9087 2020-2-22 20:51
[UK] Go Wild in Dundee attach_img fp8329 2020-2-22 20:47 0864 fp8329 2020-2-22 20:47
[UK] MAN 18.220 配 East Lancs Kinetic 車身 attach_img fp8329 2020-2-22 20:43 01044 fp8329 2020-2-22 20:43
[Japan] JR巴士關東 agree nwfb1001 2020-2-22 00:29 11196 HE7921 2020-2-22 13:56
[UK] 紅色benz Citaro attach_img LB9087 2020-2-21 23:35 0978 LB9087 2020-2-21 23:35
[UK] 配Optare Spectra車身的DAF DB250 attach_img LB9087 2020-2-21 23:21 01008 LB9087 2020-2-21 23:21
[UK] 色彩繽紛E200短短 attach_img LB9087 2020-2-21 23:17 0891 LB9087 2020-2-21 23:17
[UK] Volvo B5LH / 配Enviro400 MMC車身 attach_img fp8329 2020-2-20 22:08 11442 HE7921 2020-2-21 16:09
[Singapore] 2020年新加坡航空展穿梭 attach_img digest agree HE423 2020-2-19 17:07 81898 HE423 2020-2-21 10:59
[UK] Xplore Dundee 訓練巴 attach_img fp8329 2020-2-20 22:26 0997 fp8329 2020-2-20 22:26
[UK] Wrightbus Streetlite attach_img fp8329 2020-2-20 22:14 0998 fp8329 2020-2-20 22:14
[UK] 愛丁堡兩軸Trident attach_img LB9087 2020-2-20 21:12 0861 LB9087 2020-2-20 21:12
[UK] 愛丁堡的富豪7900H混能巴士 attach_img LB9087 2020-2-20 21:07 01021 LB9087 2020-2-20 21:07
[UK] 老虎色Solo中型巴士 attach_img LB9087 2020-2-20 20:47 0871 LB9087 2020-2-20 20:47
[Japan] 中國大使館安排旅遊巴接載鑽石公主號上香港旅客到羽田... attach_img CRH5 2020-2-20 00:54 03485 CRH5 2020-2-20 00:54
[UK] 英倫巴士(48) Aviemore attach_img fp8329 2020-2-19 22:29 01233 fp8329 2020-2-19 22:29
[UK] 英倫巴士(47) Inverness attach_img fp8329 2020-2-19 22:16 01100 fp8329 2020-2-19 22:16
[UK] 在巴士大集會的福特小巴 attach_img LB9087 2020-2-19 21:54 01011 LB9087 2020-2-19 21:54
[UK] Glasgow半開頂雞 attach_img LB9087 2020-2-19 21:52 0862 LB9087 2020-2-19 21:52
[UK] 真無添白雪雪的E300 attach_img LB9087 2020-2-19 21:49 0916 LB9087 2020-2-19 21:49
[UK] Mercedes Benz OC500 / MCV eVolution bodywork attach_img fp8329 2020-2-19 16:04 01001 fp8329 2020-2-19 16:04
[UK] 當年在York遇上EYMS: MCV Evoseti車身Volvo B5TL attach_img fp8329 2020-2-19 15:47 01136 fp8329 2020-2-19 15:47
[UK] 在冷雨下的愛丁堡夜攝N線 attach_img fp8329 2020-2-19 15:12 01012 fp8329 2020-2-19 15:12
[Others] 2018年12月尾泰國曼谷集道集汽車站隨攝 -1 attach_img ac 2020-2-19 15:12 0977 ac 2020-2-19 15:12
[UK] Dundee 復古色 attach_img fp8329 2020-2-19 15:03 0861 fp8329 2020-2-19 15:03
[UK] 昔日 Scarbouragh 開頂觀光線 109 attach_img fp8329 2020-2-19 14:54 0830 fp8329 2020-2-19 14:54
[UK] BRISTOL SIGHTSEEING LEYLAND OLYMPIAN - E305MSG attach_img fp8329 2020-2-6 21:34 11342 MP7697 2020-2-19 14:43
[UK] 開頂 Volvo B7TL - Whitby Town Tour attach_img fp8329 2020-2-19 14:42 0789 fp8329 2020-2-19 14:42
[UK] Brighton 開頂 Scania N94UD 配East Lancs OmniDekka車身 attach_img fp8329 2020-2-19 14:35 0798 fp8329 2020-2-19 14:35
[UK] Southdown 272 Leyland Titan PD34 BUF272C 結婚花車 attach_img fp8329 2020-2-19 14:29 0828 fp8329 2020-2-19 14:29
[UK] 披上4號線宣傳廣告的捷達Scania K230UB attach_img LB9087 2020-2-18 21:18 11053 HV9990 2020-2-19 04:05
[UK] 半個復古全廣 attach_img fp8329 2020-2-19 00:42 0908 fp8329 2020-2-19 00:42
[UK] Metroline紅色B7TL attach_img LB9087 2020-2-18 21:23 0903 LB9087 2020-2-18 21:23
[UK] 藍色E200車仔 attach_img LB9087 2020-2-18 21:14 0852 LB9087 2020-2-18 21:14
[UK] Bristol Metrobus E400CBG attach_img agree PV4394 2020-2-17 22:12 01041 PV4394 2020-2-17 22:12
[UK] 由East Yorkshire移民到Plymouth Citybus嘅零六年E200 attach_img agree PV4394 2020-2-17 22:02 01036 PV4394 2020-2-17 22:02
[UK] 藍色青蛙全廣蛋特見22 attach_img LB9087 2020-2-17 21:58 0864 LB9087 2020-2-17 21:58
[UK] 到巴士大集會的經典倫敦巴 attach_img LB9087 2020-2-17 21:55 0915 LB9087 2020-2-17 21:55
[UK] 貼上捷達新顏色貼紙前 要先髹上白色 attach_img agree PV4394 2020-2-17 21:42 0973 PV4394 2020-2-17 21:42
[UK] First Glasgow Trident attach_img LB9087 2020-2-17 21:35 0803 LB9087 2020-2-17 21:35
[UK] 捷達E200MMC attach_img LB9087 2020-2-16 21:59 01050 LB9087 2020-2-16 21:59
[UK] 車身裱上路線編號的蛋蛋 attach_img LB9087 2020-2-16 21:58 0972 LB9087 2020-2-16 21:58
[UK] 愛丁堡兩軸Trident attach_img LB9087 2020-2-16 21:56 0858 LB9087 2020-2-16 21:56
[UK] 倫敦 Red Arrow 復古色 attach_img fp8329 2020-2-16 15:28 01002 fp8329 2020-2-16 15:28
[UK] 倫敦兩軸西瓜波 attach_img LB9087 2020-2-14 23:55 01222 LB9087 2020-2-14 23:55
[UK] 雙層綠色702去倫敦 attach_img LB9087 2020-2-14 23:54 01116 LB9087 2020-2-14 23:54
[Singapore] SBS中的兩款車身B9 attach_img LB9087 2020-2-14 23:52 01125 LB9087 2020-2-14 23:52
[UK] 昔日Manchester的Citaro attach_img fp8329 2020-2-12 16:58 01333 fp8329 2020-2-12 16:58
[UK] No Lane, No Gain attach_img fp8329 2020-2-12 15:32 0932 fp8329 2020-2-12 15:32
[UK] Dennis Dart (ALX200 vs MCV Evolution車身) attach_img fp8329 2020-2-12 15:28 01104 fp8329 2020-2-12 15:28
[UK] Routemaster改裝成固定美食車 attach_img fp8329 2020-2-12 15:23 01030 fp8329 2020-2-12 15:23
[Others] 退役Metrobus @ 馬六甲 attach_img agree m21 2019-12-24 16:15 12638 fp8329 2020-2-12 15:22
[UK] Liverpool Crossriver 系列路線 attach_img fp8329 2020-2-11 13:32 01001 fp8329 2020-2-11 13:32
[UK] MAN 18.220 / Alexander ALX Body attach_img fp8329 2020-2-11 13:01 01144 fp8329 2020-2-11 13:01
[UK] Volvo B10B/Alexander Strider - Arriva Training Bus attach_img fp8329 2020-2-11 12:53 0921 fp8329 2020-2-11 12:53
[UK] First West Yorkshire 復古色 attach_img fp8329 2019-11-24 16:00 21779 fp8329 2020-2-11 12:39
[UK] 在Leeds服務的前EYMS巴士 attach_img fp8329 2020-2-11 12:15 0904 fp8329 2020-2-11 12:15
[UK] First Manchester 復古色 attach_img fp8329 2019-11-10 23:49 31623 fp8329 2020-2-10 23:42
[UK] 開頂 Scania N113DRB attach_img fp8329 2020-2-10 23:33 0983 fp8329 2020-2-10 23:33
[UK] First South Yorkshire 復古色 attach_img fp8329 2019-11-6 17:09 31761 fp8329 2020-2-10 21:48
[UK] Remain on the road 失敗了 attach_img fp8329 2020-2-10 21:20 0990 fp8329 2020-2-10 21:20
[UK] Stagecoach Volvo B10M-55 Training Bus attach_img fp8329 2020-2-10 20:08 0883 fp8329 2020-2-10 20:08
[UK] 已於上月結業的Halton Transport attach_img fp8329 2020-2-10 20:03 0884 fp8329 2020-2-10 20:03
[UK] Leeds City Bus attach_img fp8329 2020-2-10 17:29 0825 fp8329 2020-2-10 17:29
[UK] 昔日 Manchester 掛接 attach_img fp8329 2020-2-10 17:12 0843 fp8329 2020-2-10 17:12
[UK] ARRIVA electric hybrid attach_img fp8329 2020-2-10 17:02 0812 fp8329 2020-2-10 17:02
[UK] Mann island, Liverpool attach_img fp8329 2020-2-10 16:52 0755 fp8329 2020-2-10 16:52
[UK] DAF SB220 / East Lancs Myllennuim attach_img fp8329 2020-2-10 16:42 0782 fp8329 2020-2-10 16:42
[UK] 巧遇 VDL Pulsar 樣板車 attach_img fp8329 2020-2-7 15:52 01561 fp8329 2020-2-7 15:52
[UK] Halton Transport因虧損嚴重而結業 attach_img KV8948 2020-1-25 21:55 11632 fp8329 2020-2-7 15:37
[UK] 在York古城牆下 attach_img fp8329 2020-2-7 15:20 01014 fp8329 2020-2-7 15:20
[UK] Volvo B10BLE / Alexander ALX300 attach_img fp8329 2020-2-7 15:11 01046 fp8329 2020-2-7 15:11
[UK] Glasgow Citybus attach_img fp8329 2020-2-7 14:56 0974 fp8329 2020-2-7 14:56
[UK] 三軸Megabus attach_img fp8329 2020-2-7 14:46 01043 fp8329 2020-2-7 14:46
[UK] Stagecoach Oxford 車廠參觀記 attach_img fp8329 2020-2-7 14:41 01039 fp8329 2020-2-7 14:41
[UK] Scania K270UB CNG/Alexander Dennis Enviro300 attach_img fp8329 2020-2-7 14:40 0935 fp8329 2020-2-7 14:40
[UK] First Bus Great Yarmouth 車廠參觀記 attach_img fp8329 2020-2-6 21:23 01163 fp8329 2020-2-6 21:23
[UK] Norwich Konectbus 盛世時 attach_img fp8329 2020-2-6 16:13 01045 fp8329 2020-2-6 16:13
[UK] It's time to try the bus attach_img fp8329 2020-2-6 16:03 01039 fp8329 2020-2-6 16:03
[UK] Bus Road Test (1957) kenkaka 2020-2-5 20:12 01177 kenkaka 2020-2-5 20:12
[Japan] 宮崎巿青島巴士隨攝 attach_img fp8329 2020-2-4 15:19 01106 fp8329 2020-2-4 15:19
[Japan] 盛岡巴士隨攝 attach_img fp8329 2020-2-4 14:27 01021 fp8329 2020-2-4 14:27
[Japan] 花卷巴士 attach_img fp8329 2020-2-4 13:37 01071 fp8329 2020-2-4 13:37
[Australia] Australia Day 2020 vintage bus ride ML1 basiling 2020-2-2 18:06 01820 basiling 2020-2-2 18:06
[Singapore] SMRT掛接男人 attach_img LB9087 2020-1-31 21:24 01264 LB9087 2020-1-31 21:24
[Singapore] 星柔男人 attach_img LB9087 2020-1-31 21:18 01029 LB9087 2020-1-31 21:18
[Singapore] SMRT綠色B9 attach_img LB9087 2020-1-31 21:17 01022 LB9087 2020-1-31 21:17
[Singapore] 新舊富豪兩代同堂 attach_img LB9087 2020-1-30 22:06 01174 LB9087 2020-1-30 22:06
[Singapore] 有小許不同的富豪奧林比安 attach_img LB9087 2020-1-30 22:05 01119 LB9087 2020-1-30 22:05
[Others] [菲律賓] 馬尼拉NAIA機場Terminal 1外巴士隨攝 201806 attach_img ac 2019-10-22 00:00 22258 fanling409cq 2020-1-30 05:31
[Others] 頭牌顯示777的巴士 attach_img agree LB9087 2020-1-27 22:20 11362 paul2357paul 2020-1-30 03:50
[Others] 星柔殘雞 attach_img LB9087 2020-1-29 22:11 01082 LB9087 2020-1-29 22:11
[Singapore] 應該只係新加坡獨有車身嘅B9 attach_img LB9087 2020-1-29 22:06 01244 LB9087 2020-1-29 22:06
[Others] 大陸車在馬拉 attach_img LB9087 2020-1-29 22:00 01068 LB9087 2020-1-29 22:00
[UK] [2019-07/08]英倫巴士雜攝 attach_img agree DIH 2020-1-28 16:02 71494 DIH 2020-1-28 16:51
[Others] 成個屋仔咁款的男人 attach_img LB9087 2020-1-27 22:18 01048 LB9087 2020-1-27 22:18
[Others] 配不同車身HINO在馬拉 attach_img LB9087 2020-1-27 22:10 0973 LB9087 2020-1-27 22:10
[Singapore] 三部SBS B10M在一起 attach_img LB9087 2020-1-27 22:01 0967 LB9087 2020-1-27 22:01
[Others] 配雙層車身的BENZ attach_img LB9087 2020-1-27 22:00 01091 LB9087 2020-1-27 22:00
[Singapore] 正光SBS V豬 attach_img LB9087 2020-1-25 22:33 01189 LB9087 2020-1-25 22:33
[Singapore] SMRT掛接男人 attach_img LB9087 2020-1-25 22:22 0964 LB9087 2020-1-25 22:22
[Others] [芬蘭] Helsinki巴士雜攝(1) —— Scania篇 agree nokia_hk_fans 2020-1-25 18:13 01351 nokia_hk_fans 2020-1-25 18:13
[UK] Wrightbus自家製蛋蛋 attach_img LB9087 2020-1-18 22:19 11794 EN1504-201 2020-1-24 22:37
[Singapore] 無添蛋蛋 attach_img LB9087 2020-1-23 22:17 01029 LB9087 2020-1-23 22:17
[Singapore] 新加坡綠色MMC attach_img LB9087 2020-1-23 22:16 01128 LB9087 2020-1-23 22:16
[Singapore] SMRT Benz attach_img LB9087 2020-1-23 22:10 0927 LB9087 2020-1-23 22:10
[UK] 全新二合一 靈車+載親友巴士 attach_img digest  ...2 hkitalk.media 2019-10-3 22:09 1413920 PF2802 2020-1-22 11:49
[Singapore] 特別色彩的Benz attach_img ATE71 2020-1-21 22:11 01167 ATE71 2020-1-21 22:11
[UK] 啡色蛋蛋 attach_img LB9087 2020-1-20 22:52 01058 LB9087 2020-1-20 22:52
[UK] 玻璃梯是這樣上廣告的 attach_img LB9087 2020-1-20 22:27 01245 LB9087 2020-1-20 22:27
[Japan] 大宫東武巴士 attach_img agree LB9087 2020-1-20 22:11 01063 LB9087 2020-1-20 22:11
[Japan] 秋田巴士隨攝 attach_img LB9087 2020-1-19 21:29 01121 LB9087 2020-1-19 21:29
[UK] 同倫敦巴士一樣色的Benz attach_img LB9087 2020-1-18 22:14 01094 LB9087 2020-1-18 22:14
[Singapore] 電牌與數字牌的奥林比安 attach_img LB9087 2020-1-17 23:02 01210 LB9087 2020-1-17 23:02
[Singapore] SBS無添雞 attach_img LB9087 2020-1-17 22:48 0996 LB9087 2020-1-17 22:48
[Canada] [YVR]Vancouver Translink E500MMC Facelift in snow attach_img billlmf 2020-1-16 09:59 23331 billlmf 2020-1-17 04:01
[Singapore] 銀色西瓜波 attach_img LB9087 2020-1-15 22:32 01272 LB9087 2020-1-15 22:32
[Singapore] 笑雞的日與夜 attach_img LB9087 2020-1-15 22:30 01158 LB9087 2020-1-15 22:30
[Singapore] 數碼暴龍半廣MMC attach_img LB9087 2020-1-15 22:28 01179 LB9087 2020-1-15 22:28
[Singapore] 星柔Scania attach_img LB9087 2020-1-12 22:34 01324 LB9087 2020-1-12 22:34
[Singapore] 行170的富豪B10M attach_img LB9087 2020-1-12 22:32 01293 LB9087 2020-1-12 22:32
[Singapore] 馬拉[城巴]殘舊Benz attach_img LB9087 2020-1-12 22:30 01527 LB9087 2020-1-12 22:30
[Canada] [YVR]Translink Alexander Dennis Enviro 500MMC video kmb3asv141 2020-1-10 01:21 21368 低地台AD 2020-1-12 19:19
[Singapore] Nikon 1 V1相機半廣 attach_img LB9087 2020-1-11 22:16 01062 LB9087 2020-1-11 22:16
[Singapore] SMRT Benz 167 attach_img LB9087 2020-1-11 21:52 01028 LB9087 2020-1-11 21:52
[Singapore] SBS無添雞雞 attach_img LB9087 2020-1-11 21:43 01078 LB9087 2020-1-11 21:43
[Singapore] 星州半廣雞 attach_img LB9087 2020-1-11 21:40 01118 LB9087 2020-1-11 21:40
[UK] 金龍出售已破產的英國分公司 CRH5 2020-1-10 19:01 03096 CRH5 2020-1-10 19:01
[Japan] 東京的Neoplan skyliner 觀光巴士+Hello kitty彩繪巴士 attach_img digest LB9087 2019-9-13 22:34 13959 maytse 2020-1-10 11:07
[Japan] 日本掛接Neopaln Centroliner attach_img digest LB9087 2019-9-13 22:29 45679 maytse 2020-1-10 11:02
[Others] [SP]屋企人影的巴士相,MAN. attach_img 3asv6 2019-11-17 06:34 21678 maytse 2020-1-10 11:01
[UK] 前城巴 #113 現於 ebay 放售 attach_img agree HZ8186 2020-1-9 11:49 31574 maytse 2020-1-10 10:57
Demonstrator Volvo B8RLE-(MCV Evora Body) on loan to Glasgow Mcgill's Buses attach_img agree Leuk 2020-1-9 02:37 01324 Leuk 2020-1-9 02:37
[UK] Park's of Hamilton Volvo B11RLE-(Plaxton Panorama bodywork) attach_img agree Leuk 2020-1-9 02:29 01212 Leuk 2020-1-9 02:29
[Singapore] 41有咸蛋 agree oldmancheung 2020-1-2 22:34 01495 oldmancheung 2020-1-2 22:34
[Others] 除夕夜的杜拜巴士 attach_img hkitalk.media 2020-1-2 17:37 01612 hkitalk.media 2020-1-2 17:37
[UK] 白色Solo SR attach_img ATE71 2020-1-1 21:52 01303 ATE71 2020-1-1 21:52
[UK] 單門兩軸Volvo B9TL attach_img ATE71 2020-1-1 21:51 01521 ATE71 2020-1-1 21:51
[Japan] 鳥取梨巴士 attach_img agree kokchun 2019-12-29 17:26 01311 kokchun 2019-12-29 17:26
[Japan] 岡山貓巴士 attach_img agree kokchun 2019-12-29 17:19 01275 kokchun 2019-12-29 17:19
[UK] London有NRM行駛中著火 KV8948 2019-12-28 11:58 01762 KV8948 2019-12-28 11:58
下一頁 »

快速發帖

還可輸入 80 個字符
您需要登錄後才可以發帖 登錄 | 會員申請加入

本版積分規則

Advertisement

Advertisement

站規|清理本站Cookies|hkitalk.net 香港交通資訊網

GMT+8, 2020-11-27 11:28

Powered by Discuz! X3.3

© 2001-2013 Comsenz Inc.

返回頂部 返回版塊